Time;durP1;ratioP1;P1;durP2;ratioP2;P2;SDS_P1;SDS_P2;PMS_P1;PMS_P2;Temp;Humidity;BMP_temperature;BMP_pressure;BME280_temperature;BME280_humidity;BME280_pressure;Samples;Min_cycle;Max_cycle;Signal;HPM_P1;HPM_P2
2023/12/29 00:02:03;;;;;;;;;;;;;;;14.93;49.29;99928.41;5016843;28;7275;-77
2023/12/29 00:04:29;;;;;;;;;;;;;;;14.94;49.22;99937.00;5035049;28;6930;-77
2023/12/29 00:06:55;;;;;;;;;;;;;;;14.90;49.06;99933.47;5021493;28;6893;-77
2023/12/29 00:09:20;;;;;;;;;;;;;;;14.88;48.35;99932.56;5020071;28;6915;-77
2023/12/29 00:11:48;;;;;;;;;;;;;;;14.84;48.72;99939.38;5021155;28;6989;-77
2023/12/29 00:14:13;;;;;;;;;;;;;;;14.83;49.11;99936.78;5024295;28;6934;-77
2023/12/29 00:16:39;;;;;;;;;;;;;;;14.84;49.25;99954.84;5019626;28;6775;-76
2023/12/29 00:19:05;;;;;;;;;;;;;;;14.85;49.32;99935.94;5034274;28;6912;-77
2023/12/29 00:21:30;;;;;;;;;;;;;;;14.88;49.10;99940.31;5012037;28;7059;-77
2023/12/29 00:23:56;;;;;;;;;;;;;;;14.88;49.50;99923.97;5033260;28;6890;-77
2023/12/29 00:26:22;;;;;;;;;;;;;;;14.88;49.58;99944.63;5011244;28;6964;-77
2023/12/29 00:28:47;;;;;;;;;;;;;;;14.84;49.47;99938.53;5018053;28;6935;-77
2023/12/29 00:31:17;;;;;;;;;;;;;;;14.83;49.47;99929.88;5020119;28;7194;-77
2023/12/29 00:33:43;;;;;;;;;;;;;;;14.82;49.29;99928.16;5017227;28;6984;-77
2023/12/29 00:36:17;;;;;;;;;;;;;;;14.80;49.31;99916.94;5016891;28;6961;-77
2023/12/29 00:38:43;;;;;;;;;;;;;;;14.81;49.22;99939.31;5016354;28;7170;-77
2023/12/29 00:41:09;;;;;;;;;;;;;;;14.81;49.37;99938.44;5019900;28;6760;-76
2023/12/29 00:43:35;;;;;;;;;;;;;;;14.78;49.25;99931.50;5037984;28;6918;-77
2023/12/29 00:46:05;;;;;;;;;;;;;;;14.77;49.10;99932.31;5038473;28;7200;-77
2023/12/29 00:48:32;;;;;;;;;;;;;;;14.73;49.75;99930.50;5020824;28;7189;-77
2023/12/29 00:50:57;;;;;;;;;;;;;;;14.71;49.66;99925.28;5020931;28;6784;-76
2023/12/29 00:53:23;;;;;;;;;;;;;;;14.70;49.52;99907.22;5037091;28;7225;-77
2023/12/29 00:55:49;;;;;;;;;;;;;;;14.71;49.55;99917.53;5031698;28;6835;-76
2023/12/29 00:58:15;;;;;;;;;;;;;;;14.74;49.66;99911.63;5020754;28;6914;-76
2023/12/29 01:00:40;;;;;;;;;;;;;;;14.77;49.22;99932.31;5021248;28;6813;-76
2023/12/29 01:03:06;;;;;;;;;;;;;;;14.78;49.40;99908.28;5022208;28;7173;-76
2023/12/29 01:05:34;;;;;;;;;;;;;;;14.80;49.29;99893.72;5026499;28;6954;-79
2023/12/29 01:07:59;;;;;;;;;;;;;;;14.82;49.14;99909.22;4994747;28;7799;-76
2023/12/29 01:10:25;;;;;;;;;;;;;;;14.84;49.67;99900.69;5011352;28;7081;-76
2023/12/29 01:12:50;;;;;;;;;;;;;;;14.84;49.86;99895.50;5010124;28;7153;-77
2023/12/29 01:15:17;;;;;;;;;;;;;;;14.85;49.60;99883.50;5012735;28;6835;-76
2023/12/29 01:17:42;;;;;;;;;;;;;;;14.84;49.52;99880.03;5006157;28;6784;-76
2023/12/29 01:20:09;;;;;;;;;;;;;;;14.83;49.60;99883.47;5006362;28;8571;-76
2023/12/29 01:22:34;;;;;;;;;;;;;;;14.81;49.67;99867.06;4991374;28;7199;-76
2023/12/29 01:25:00;;;;;;;;;;;;;;;14.81;49.74;99887.72;5008987;28;6780;-75
2023/12/29 01:27:27;;;;;;;;;;;;;;;14.78;49.94;99877.34;5028676;28;6984;-75
2023/12/29 01:29:52;;;;;;;;;;;;;;;14.75;49.33;99876.41;5010768;28;6795;-75
2023/12/29 01:32:19;;;;;;;;;;;;;;;14.70;49.83;99877.09;5028853;28;6948;-75
2023/12/29 01:34:44;;;;;;;;;;;;;;;14.67;49.80;99879.63;5024697;28;6808;-75
2023/12/29 01:37:10;;;;;;;;;;;;;;;14.66;50.18;99877.00;4985957;28;7113;-76
2023/12/29 01:39:36;;;;;;;;;;;;;;;14.66;49.72;99882.16;4994158;28;6961;-75
2023/12/29 01:42:01;;;;;;;;;;;;;;;14.65;50.26;99883.00;4993367;28;6937;-76
2023/12/29 01:44:27;;;;;;;;;;;;;;;14.67;49.76;99878.75;5010886;28;6966;-76
2023/12/29 01:46:59;;;;;;;;;;;;;;;14.70;50.63;99897.75;5009255;28;6768;-76
2023/12/29 01:49:25;;;;;;;;;;;;;;;14.72;49.86;99897.78;5008266;28;6977;-76
2023/12/29 01:52:00;;;;;;;;;;;;;;;14.67;50.99;99896.81;5000755;28;7035;-77
2023/12/29 01:54:29;;;;;;;;;;;;;;;14.51;51.06;99883.56;5007323;28;8583;-76
2023/12/29 01:56:58;;;;;;;;;;;;;;;14.34;51.90;99905.47;4994968;28;6958;-75
2023/12/29 01:59:26;;;;;;;;;;;;;;;14.17;51.82;99898.19;5010139;28;6994;-76
2023/12/29 02:01:55;;;;;;;;;;;;;;;14.03;52.39;99898.72;5010688;28;6985;-76
2023/12/29 02:04:25;;;;;;;;;;;;;;;13.91;52.63;99906.16;5009725;28;7037;-75
2023/12/29 02:06:51;;;;;;;;;;;;;;;13.80;53.77;99898.13;5007588;28;7323;-75
2023/12/29 02:09:18;;;;;;;;;;;;;;;13.72;54.00;99909.91;4990738;28;7011;-74
2023/12/29 02:11:45;;;;;;;;;;;;;;;13.63;54.02;99910.53;4996616;28;6983;-75
2023/12/29 02:14:11;;;;;;;;;;;;;;;13.57;54.43;99915.50;5010898;28;7423;-76
2023/12/29 02:16:54;;;;;;;;;;;;;;;13.49;54.48;99909.28;5016236;28;6864;-75
2023/12/29 02:19:46;;;;;;;;;;;;;;;13.43;54.84;99892.81;5031692;28;7242;-75
2023/12/29 02:22:12;;;;;;;;;;;;;;;13.39;55.16;99911.56;5013761;28;7218;-75
2023/12/29 02:24:39;;;;;;;;;;;;;;;13.34;56.48;99900.28;5019762;28;7014;-75
2023/12/29 02:27:26;;;;;;;;;;;;;;;13.31;56.02;99901.03;5012637;28;7108;-75
2023/12/29 02:30:21;;;;;;;;;;;;;;;13.26;56.91;99889.72;5015380;28;7156;-75
2023/12/29 02:32:54;;;;;;;;;;;;;;;13.22;56.97;99892.16;5015137;28;12049;-75
2023/12/29 02:35:26;;;;;;;;;;;;;;;13.19;56.65;99880.97;5017866;28;6983;-75
2023/12/29 02:37:53;;;;;;;;;;;;;;;13.18;56.87;99876.66;5020591;28;6823;-75
2023/12/29 02:40:19;;;;;;;;;;;;;;;13.20;56.73;99893.00;5016295;28;6976;-75
2023/12/29 02:42:49;;;;;;;;;;;;;;;13.28;56.80;99890.69;5000175;28;7132;-75
2023/12/29 02:45:18;;;;;;;;;;;;;;;13.38;56.84;99878.06;5019188;28;6942;-75
2023/12/29 02:47:44;;;;;;;;;;;;;;;13.50;56.36;99877.56;5035408;28;6788;-75
2023/12/29 02:50:10;;;;;;;;;;;;;;;13.60;55.93;99871.81;5021392;28;6871;-75
2023/12/29 02:52:37;;;;;;;;;;;;;;;13.70;56.40;99867.81;5005407;28;7572;-75
2023/12/29 02:55:03;;;;;;;;;;;;;;;13.79;55.82;99869.72;5034107;28;7741;-75
2023/12/29 02:57:29;;;;;;;;;;;;;;;13.89;55.96;99869.16;5018626;28;6958;-75
2023/12/29 02:59:55;;;;;;;;;;;;;;;13.98;55.14;99855.66;5036593;28;7007;-75
2023/12/29 03:02:22;;;;;;;;;;;;;;;14.05;55.48;99849.81;5029018;28;6771;-75
2023/12/29 03:04:47;;;;;;;;;;;;;;;14.10;55.06;99860.22;5027481;28;7034;-75
2023/12/29 03:07:13;;;;;;;;;;;;;;;14.14;55.21;99862.06;5016158;28;6851;-75
2023/12/29 03:09:38;;;;;;;;;;;;;;;14.19;54.42;99855.28;5021877;28;7186;-75
2023/12/29 03:12:06;;;;;;;;;;;;;;;14.21;54.13;99848.50;5016995;28;7158;-75
2023/12/29 03:14:31;;;;;;;;;;;;;;;14.26;54.10;99853.75;5019197;28;7192;-75
2023/12/29 03:16:57;;;;;;;;;;;;;;;14.28;54.00;99858.09;5034499;28;6945;-75
2023/12/29 03:19:23;;;;;;;;;;;;;;;14.30;54.41;99850.41;5011799;28;8515;-75
2023/12/29 03:21:48;;;;;;;;;;;;;;;14.32;53.90;99856.47;5023221;28;6764;-75
2023/12/29 03:24:14;;;;;;;;;;;;;;;14.34;53.65;99843.63;5021846;28;6925;-75
2023/12/29 03:26:40;;;;;;;;;;;;;;;14.33;53.58;99853.03;5028412;28;6777;-76
2023/12/29 03:29:06;;;;;;;;;;;;;;;14.34;53.55;99849.66;5012542;28;6792;-77
2023/12/29 03:31:32;;;;;;;;;;;;;;;14.35;53.39;99845.34;4979977;28;7070;-77
2023/12/29 03:33:58;;;;;;;;;;;;;;;14.38;53.27;99851.47;4988379;28;7146;-77
2023/12/29 03:36:23;;;;;;;;;;;;;;;14.39;53.21;99840.31;4985979;28;6973;-76
2023/12/29 03:38:49;;;;;;;;;;;;;;;14.42;53.02;99847.25;4985202;28;7023;-77
2023/12/29 03:41:14;;;;;;;;;;;;;;;14.45;53.44;99847.31;4988752;28;8369;-78
2023/12/29 03:43:40;;;;;;;;;;;;;;;14.49;53.52;99862.03;4994715;28;7205;-77
2023/12/29 03:46:20;;;;;;;;;;;;;;;14.53;53.47;99844.91;5012019;28;6942;-78
2023/12/29 03:48:46;;;;;;;;;;;;;;;14.56;53.33;99845.84;4980043;28;7037;-78
2023/12/29 03:51:11;;;;;;;;;;;;;;;14.60;53.11;99840.78;4994522;28;7104;-78
2023/12/29 03:53:37;;;;;;;;;;;;;;;14.64;53.13;99852.91;4974976;28;7172;-77
2023/12/29 03:56:14;;;;;;;;;;;;;;;14.66;52.77;99857.25;4997299;28;6791;-77
2023/12/29 03:58:40;;;;;;;;;;;;;;;14.69;52.73;99857.31;4988822;28;6973;-78
2023/12/29 04:01:14;;;;;;;;;;;;;;;14.73;52.75;99858.28;5008493;28;7161;-78
2023/12/29 04:03:40;;;;;;;;;;;;;;;14.74;52.21;99857.44;4996403;28;6966;-77
2023/12/29 04:06:07;;;;;;;;;;;;;;;14.75;52.99;99856.63;4997888;28;7270;-77
2023/12/29 04:08:34;;;;;;;;;;;;;;;14.76;52.55;99865.25;4992202;28;7574;-78
2023/12/29 04:10:59;;;;;;;;;;;;;;;14.74;52.57;99849.72;5013181;28;6964;-77
2023/12/29 04:13:25;;;;;;;;;;;;;;;14.75;52.49;99858.34;4992030;28;8250;-75
2023/12/29 04:15:51;;;;;;;;;;;;;;;14.75;52.50;99861.78;4995970;28;7090;-77
2023/12/29 04:18:17;;;;;;;;;;;;;;;14.78;52.99;99854.13;5000252;28;7209;-78
2023/12/29 04:20:43;;;;;;;;;;;;;;;14.82;52.26;99855.91;4981555;28;6959;-77
2023/12/29 04:23:09;;;;;;;;;;;;;;;14.83;52.74;99851.66;4981648;28;7528;-77
2023/12/29 04:25:34;;;;;;;;;;;;;;;14.85;52.60;99857.69;4978717;28;7117;-76
2023/12/29 04:28:00;;;;;;;;;;;;;;;14.82;52.44;99866.25;4994363;28;7282;-78
2023/12/29 04:30:26;;;;;;;;;;;;;;;14.78;52.37;99855.81;4990060;28;6967;-77
2023/12/29 04:32:51;;;;;;;;;;;;;;;14.72;52.48;99853.94;4995909;28;7099;-77
2023/12/29 04:35:17;;;;;;;;;;;;;;;14.67;52.26;99860.69;4974427;28;7225;-77
2023/12/29 04:37:45;;;;;;;;;;;;;;;14.66;52.31;99856.38;5013519;28;7868;-75
2023/12/29 04:40:12;;;;;;;;;;;;;;;14.65;52.26;99859.78;5018678;28;7148;-75
2023/12/29 04:42:38;;;;;;;;;;;;;;;14.63;52.15;99864.06;5011062;28;6955;-75
2023/12/29 04:45:05;;;;;;;;;;;;;;;14.60;52.71;99864.84;5010640;28;8172;-76
2023/12/29 04:47:30;;;;;;;;;;;;;;;14.60;52.91;99872.59;5012384;28;7243;-75
2023/12/29 04:49:56;;;;;;;;;;;;;;;14.58;52.19;99875.16;4994633;28;6919;-75
2023/12/29 04:52:22;;;;;;;;;;;;;;;14.58;52.85;99880.31;5014602;28;6969;-75
2023/12/29 04:54:47;;;;;;;;;;;;;;;14.57;52.94;99878.53;5000563;28;6952;-75
2023/12/29 04:57:13;;;;;;;;;;;;;;;14.59;52.84;99886.31;5013951;28;6783;-75
2023/12/29 04:59:39;;;;;;;;;;;;;;;14.58;52.38;99870.00;5028665;28;6907;-76
2023/12/29 05:02:04;;;;;;;;;;;;;;;14.57;52.66;99864.78;4996634;28;6950;-75
2023/12/29 05:04:30;;;;;;;;;;;;;;;14.57;52.55;99878.53;5009717;28;6958;-75
2023/12/29 05:06:56;;;;;;;;;;;;;;;14.57;52.59;99859.63;5009162;28;6946;-75
2023/12/29 05:09:22;;;;;;;;;;;;;;;14.56;52.18;99860.47;4993316;28;6958;-75
2023/12/29 05:11:48;;;;;;;;;;;;;;;14.54;52.30;99868.16;5006685;28;7282;-75
2023/12/29 05:14:13;;;;;;;;;;;;;;;14.52;52.47;99862.09;4993743;28;6817;-76
2023/12/29 05:16:41;;;;;;;;;;;;;;;14.50;51.92;99861.19;5008820;28;7031;-75
2023/12/29 05:19:07;;;;;;;;;;;;;;;14.47;52.30;99843.06;4992792;28;6971;-75
2023/12/29 05:21:32;;;;;;;;;;;;;;;14.46;52.36;99854.22;4991526;28;6971;-76
2023/12/29 05:23:59;;;;;;;;;;;;;;;14.45;52.64;99842.16;5004794;28;6962;-75
2023/12/29 05:26:25;;;;;;;;;;;;;;;14.44;51.90;99853.31;5007739;28;6968;-75
2023/12/29 05:28:51;;;;;;;;;;;;;;;14.42;51.95;99853.25;5020317;28;6799;-74
2023/12/29 05:31:17;;;;;;;;;;;;;;;14.40;52.02;99854.94;4998910;28;7059;-75
2023/12/29 05:33:46;;;;;;;;;;;;;;;14.39;51.83;99858.34;5010195;28;7347;-75
2023/12/29 05:36:12;;;;;;;;;;;;;;;14.39;52.70;99848.03;4989171;28;6999;-75
2023/12/29 05:38:38;;;;;;;;;;;;;;;14.39;52.43;99862.63;4999079;28;7043;-75
2023/12/29 05:41:04;;;;;;;;;;;;;;;14.39;52.01;99854.88;5007528;28;7266;-75
2023/12/29 05:43:32;;;;;;;;;;;;;;;14.40;52.01;99861.81;4995714;28;8387;-75
2023/12/29 05:46:01;;;;;;;;;;;;;;;14.40;52.42;99854.94;5004315;28;7136;-78
2023/12/29 05:48:27;;;;;;;;;;;;;;;14.39;52.05;99852.31;4978013;28;6974;-78
2023/12/29 05:50:53;;;;;;;;;;;;;;;14.38;51.91;99846.31;4979350;28;7024;-78
2023/12/29 05:53:19;;;;;;;;;;;;;;;14.39;52.24;99854.88;4976124;28;7243;-77
2023/12/29 05:55:45;;;;;;;;;;;;;;;14.38;51.88;99838.56;4998028;28;6963;-78
2023/12/29 05:58:11;;;;;;;;;;;;;;;14.39;52.37;99858.34;4978409;28;6842;-77
2023/12/29 06:00:39;;;;;;;;;;;;;;;14.38;52.29;99848.00;4976710;28;6991;-77
2023/12/29 06:03:05;;;;;;;;;;;;;;;14.39;51.97;99860.94;4993578;28;6848;-78
2023/12/29 06:05:32;;;;;;;;;;;;;;;14.40;51.93;99865.25;4992903;28;7331;-78
2023/12/29 06:07:57;;;;;;;;;;;;;;;14.42;52.29;99862.72;4973675;28;7397;-78
2023/12/29 06:10:23;;;;;;;;;;;;;;;14.44;51.84;99856.78;4992476;28;6967;-77
2023/12/29 06:12:49;;;;;;;;;;;;;;;14.47;51.78;99862.81;5008288;28;6776;-77
2023/12/29 06:15:15;;;;;;;;;;;;;;;14.50;52.45;99861.19;4993586;28;7232;-77
2023/12/29 06:17:41;;;;;;;;;;;;;;;14.53;51.75;99866.41;5010759;28;6970;-77
2023/12/29 06:20:09;;;;;;;;;;;;;;;14.57;51.71;99859.63;4993055;28;7099;-77
2023/12/29 06:22:40;;;;;;;;;;;;;;;14.60;51.87;99861.41;4989294;28;6869;-78
2023/12/29 06:25:10;;;;;;;;;;;;;;;14.63;51.63;99867.50;4990660;28;7030;-77
2023/12/29 06:27:37;;;;;;;;;;;;;;;14.65;51.94;99860.69;4971983;28;6990;-77
2023/12/29 06:30:08;;;;;;;;;;;;;;;14.68;51.96;99859.88;4992005;28;7369;-77
2023/12/29 06:32:34;;;;;;;;;;;;;;;14.69;51.92;99854.75;4990994;28;7094;-77
2023/12/29 06:35:00;;;;;;;;;;;;;;;14.71;51.84;99854.78;4984793;28;6978;-77
2023/12/29 06:37:26;;;;;;;;;;;;;;;14.71;51.46;99840.16;4991642;28;7314;-78
2023/12/29 06:39:52;;;;;;;;;;;;;;;14.74;51.71;99847.13;4994814;28;7189;-78
2023/12/29 06:42:17;;;;;;;;;;;;;;;14.74;51.66;99849.72;4973330;28;6991;-78
2023/12/29 06:44:43;;;;;;;;;;;;;;;14.75;52.04;99835.97;4993370;28;7025;-77
2023/12/29 06:47:09;;;;;;;;;;;;;;;14.75;51.78;99841.13;4989396;28;6941;-78
2023/12/29 06:49:35;;;;;;;;;;;;;;;14.74;51.66;99829.06;4992358;28;6803;-78
2023/12/29 06:52:01;;;;;;;;;;;;;;;14.75;51.22;99823.06;4993675;28;7234;-78
2023/12/29 06:54:26;;;;;;;;;;;;;;;14.74;52.07;99829.06;4989743;28;7257;-77
2023/12/29 06:56:52;;;;;;;;;;;;;;;14.72;51.68;99825.56;5010235;28;7197;-77
2023/12/29 06:59:19;;;;;;;;;;;;;;;14.73;51.58;99824.75;4991569;28;6779;-77
2023/12/29 07:01:45;;;;;;;;;;;;;;;14.72;52.17;99820.41;5000600;28;7034;-78
2023/12/29 07:04:13;;;;;;;;;;;;;;;14.72;51.96;99823.88;4979631;28;7010;-77
2023/12/29 07:06:39;;;;;;;;;;;;;;;14.71;51.99;99816.94;4999211;28;8637;-77
2023/12/29 07:09:05;;;;;;;;;;;;;;;14.70;51.74;99832.41;4987900;28;6772;-77
2023/12/29 07:11:30;;;;;;;;;;;;;;;14.67;52.41;99827.16;4985171;28;7215;-78
2023/12/29 07:13:56;;;;;;;;;;;;;;;14.66;52.26;99835.75;4988191;28;6763;-78
2023/12/29 07:16:22;;;;;;;;;;;;;;;14.62;52.63;99833.94;4992525;28;7185;-78
2023/12/29 07:18:48;;;;;;;;;;;;;;;14.55;52.55;99849.25;4974483;28;8560;-78
2023/12/29 07:21:16;;;;;;;;;;;;;;;14.43;52.70;99859.31;4991217;28;7167;-78
2023/12/29 07:23:42;;;;;;;;;;;;;;;14.27;53.42;99858.94;4989756;28;6960;-77
2023/12/29 07:26:08;;;;;;;;;;;;;;;14.11;54.46;99854.25;4992985;28;7245;-78
2023/12/29 07:28:33;;;;;;;;;;;;;;;13.97;54.55;99866.78;4990007;28;7181;-76
2023/12/29 07:31:00;;;;;;;;;;;;;;;13.81;54.68;99866.38;5006240;28;6920;-76
2023/12/29 07:33:25;;;;;;;;;;;;;;;13.70;55.58;99866.09;4986730;28;7411;-77
2023/12/29 07:35:51;;;;;;;;;;;;;;;13.60;55.57;99861.53;4973955;28;8556;-76
2023/12/29 07:38:17;;;;;;;;;;;;;;;13.53;55.84;99872.50;4990224;28;6787;-76
2023/12/29 07:40:43;;;;;;;;;;;;;;;13.44;56.72;99871.41;4994321;28;7263;-76
2023/12/29 07:43:08;;;;;;;;;;;;;;;13.39;56.41;99872.94;4990491;28;8573;-75
2023/12/29 07:45:34;;;;;;;;;;;;;;;13.35;57.16;99868.56;4991600;28;7405;-75
2023/12/29 07:48:02;;;;;;;;;;;;;;;13.30;57.21;99870.09;4988597;28;7264;-75
2023/12/29 07:50:28;;;;;;;;;;;;;;;13.26;57.64;99876.88;4993418;28;6792;-75
2023/12/29 07:52:53;;;;;;;;;;;;;;;13.23;58.47;99878.47;4992949;28;7179;-76
2023/12/29 07:55:19;;;;;;;;;;;;;;;13.20;58.38;99864.69;4975217;28;6843;-76
2023/12/29 07:57:46;;;;;;;;;;;;;;;13.17;58.58;99856.91;4994278;28;8401;-75
2023/12/29 08:00:14;;;;;;;;;;;;;;;13.16;59.03;99862.88;5010311;28;7328;-76
2023/12/29 08:02:40;;;;;;;;;;;;;;;13.14;59.37;99855.94;4994117;28;7203;-75
2023/12/29 08:05:09;;;;;;;;;;;;;;;13.12;59.56;99855.88;5000287;28;7196;-76
2023/12/29 08:07:38;;;;;;;;;;;;;;;13.11;59.65;99856.72;4994617;28;7062;-75
2023/12/29 08:10:06;;;;;;;;;;;;;;;13.10;59.57;99865.25;5000736;28;7469;-75
2023/12/29 08:12:33;;;;;;;;;;;;;;;13.10;60.13;99862.69;5013477;28;7055;-75
2023/12/29 08:15:00;;;;;;;;;;;;;;;13.09;60.32;99867.81;5009808;28;7026;-75
2023/12/29 08:17:26;;;;;;;;;;;;;;;13.10;60.38;99861.84;4983941;28;7655;-75
2023/12/29 08:19:51;;;;;;;;;;;;;;;13.10;60.31;99872.13;5000896;28;6787;-75
2023/12/29 08:22:18;;;;;;;;;;;;;;;13.10;60.61;99872.13;5013612;28;6789;-75
2023/12/29 08:24:44;;;;;;;;;;;;;;;13.11;60.03;99872.16;4980248;28;7019;-75
2023/12/29 08:27:12;;;;;;;;;;;;;;;13.11;60.69;99869.56;4998011;28;7093;-75
2023/12/29 08:29:38;;;;;;;;;;;;;;;13.11;60.47;99885.00;5013851;28;7250;-74
2023/12/29 08:32:04;;;;;;;;;;;;;;;13.12;60.70;99886.75;4994941;28;7356;-74
2023/12/29 08:34:30;;;;;;;;;;;;;;;13.11;61.10;99879.88;4999908;28;6887;-74
2023/12/29 08:36:56;;;;;;;;;;;;;;;13.11;61.08;99879.88;4983894;28;7324;-74
2023/12/29 08:39:22;;;;;;;;;;;;;;;13.11;61.33;99885.00;5000466;28;6969;-74
2023/12/29 08:41:49;;;;;;;;;;;;;;;13.11;61.29;99892.72;4994609;28;6999;-74
2023/12/29 08:44:15;;;;;;;;;;;;;;;13.13;61.82;99892.78;5009356;28;7106;-74
2023/12/29 08:46:41;;;;;;;;;;;;;;;13.13;61.08;99893.66;4997170;28;6811;-74
2023/12/29 08:49:07;;;;;;;;;;;;;;;13.15;61.25;99893.69;5007833;28;6974;-74
2023/12/29 08:51:33;;;;;;;;;;;;;;;13.15;61.67;99886.88;5011339;28;7173;-74
2023/12/29 08:53:58;;;;;;;;;;;;;;;13.17;61.91;99872.34;4983499;28;6965;-74
2023/12/29 08:56:24;;;;;;;;;;;;;;;13.17;61.48;99877.47;5002582;28;7343;-74
2023/12/29 08:58:50;;;;;;;;;;;;;;;13.18;61.69;99868.94;5020906;28;7067;-74
2023/12/29 09:01:15;;;;;;;;;;;;;;;13.19;62.13;99878.41;5000680;28;7206;-74
2023/12/29 09:03:41;;;;;;;;;;;;;;;13.23;61.85;99886.19;5014942;28;6976;-74
2023/12/29 09:06:08;;;;;;;;;;;;;;;13.24;62.00;99865.66;5001029;28;6816;-74
2023/12/29 09:08:35;;;;;;;;;;;;;;;13.25;61.95;99887.13;5013696;28;7266;-74
2023/12/29 09:11:01;;;;;;;;;;;;;;;13.28;62.19;99879.50;4977818;28;7174;-75
2023/12/29 09:13:27;;;;;;;;;;;;;;;13.30;61.92;99883.88;5012511;28;6799;-75
2023/12/29 09:15:57;;;;;;;;;;;;;;;13.34;62.55;99883.09;4997481;28;6800;-74
2023/12/29 09:18:22;;;;;;;;;;;;;;;13.38;62.15;99878.06;4999858;28;6970;-74
2023/12/29 09:20:48;;;;;;;;;;;;;;;13.42;62.84;99879.88;5007827;28;6800;-74
2023/12/29 09:23:14;;;;;;;;;;;;;;;13.45;62.75;99875.72;5023949;28;7120;-75
2023/12/29 09:25:40;;;;;;;;;;;;;;;13.49;62.61;99883.53;5008171;28;6793;-74
2023/12/29 09:28:06;;;;;;;;;;;;;;;13.53;62.79;99867.34;5006538;28;7054;-75
2023/12/29 09:30:32;;;;;;;;;;;;;;;13.56;62.79;99862.28;5028059;28;6776;-75
2023/12/29 09:32:57;;;;;;;;;;;;;;;13.63;62.69;99866.78;5013974;28;7142;-75
2023/12/29 09:35:24;;;;;;;;;;;;;;;13.71;62.34;99857.56;5028511;28;7174;-75
2023/12/29 09:37:50;;;;;;;;;;;;;;;13.82;62.58;99854.38;5014611;28;6836;-75
2023/12/29 09:40:16;;;;;;;;;;;;;;;13.94;62.95;99834.09;5011132;28;6998;-75
2023/12/29 09:42:44;;;;;;;;;;;;;;;14.06;62.04;99855.81;5024752;28;6923;-75
2023/12/29 09:45:12;;;;;;;;;;;;;;;14.14;61.75;99862.06;5009553;28;6800;-75
2023/12/29 09:47:43;;;;;;;;;;;;;;;14.19;61.82;99872.47;5015862;28;6993;-75
2023/12/29 09:50:13;;;;;;;;;;;;;;;14.19;61.41;99875.06;5023639;28;6946;-74
2023/12/29 09:52:40;;;;;;;;;;;;;;;14.15;61.45;99869.81;5006898;28;7078;-75
2023/12/29 09:55:11;;;;;;;;;;;;;;;14.14;61.62;99874.94;5012868;28;7054;-75
2023/12/29 09:57:38;;;;;;;;;;;;;;;14.11;60.97;99865.41;5015002;28;6812;-74
2023/12/29 10:00:06;;;;;;;;;;;;;;;14.11;60.98;99873.16;5030659;28;7098;-75
2023/12/29 10:02:32;;;;;;;;;;;;;;;14.15;61.38;99874.09;5003040;28;7231;-75
2023/12/29 10:05:01;;;;;;;;;;;;;;;14.22;60.93;99881.16;4994922;28;6963;-75
2023/12/29 10:07:35;;;;;;;;;;;;;;;14.32;61.05;99876.22;5027606;28;7019;-75
2023/12/29 10:10:02;;;;;;;;;;;;;;;14.35;60.79;99855.66;5012053;28;6859;-75
2023/12/29 10:12:28;;;;;;;;;;;;;;;14.38;61.15;99851.47;5009927;28;6783;-75
2023/12/29 10:15:06;;;;;;;;;;;;;;;14.43;60.71;99874.78;5014799;28;7247;-75
2023/12/29 10:18:16;;;;;;;;;;;;;;;14.51;61.14;99857.78;5014396;28;6990;-75
2023/12/29 10:21:07;;;;;;;;;;;;;;;14.65;61.08;99864.94;5013243;28;7628;-75
2023/12/29 10:23:42;;;;;;;;;;;;;;;14.82;60.11;99867.94;4999593;28;7019;-75
2023/12/29 10:26:11;;;;;;;;;;;;;;;14.98;60.20;99862.28;5005016;28;7078;-79
2023/12/29 10:28:37;;;;;;;;;;;;;;;15.13;60.30;99872.06;4999585;28;7139;-77
2023/12/29 10:31:04;;;;;;;;;;;;;;;15.29;59.76;99885.28;4976933;28;7056;-79
2023/12/29 10:33:32;;;;;;;;;;;;;;;15.40;59.83;99873.47;4990235;28;7170;-79
2023/12/29 10:36:03;;;;;;;;;;;;;;;15.52;58.99;99890.03;4987896;28;8055;-78
2023/12/29 10:38:30;;;;;;;;;;;;;;;15.58;58.42;99873.78;4989785;28;6963;-76
2023/12/29 10:41:13;;;;;;;;;;;;;;;15.63;58.36;99867.84;4989807;28;7252;-78
2023/12/29 10:43:39;;;;;;;;;;;;;;;15.68;58.52;99871.41;5007497;28;6976;-76
2023/12/29 10:46:10;;;;;;;;;;;;;;;15.78;58.75;99866.41;4978036;28;6956;-77
2023/12/29 10:48:37;;;;;;;;;;;;;;;15.89;58.49;99867.47;4994048;28;7011;-77
2023/12/29 10:51:04;;;;;;;;;;;;;;;16.00;58.02;99853.88;5000485;28;7259;-78
2023/12/29 10:53:34;;;;;;;;;;;;;;;16.15;57.91;99858.44;4974895;28;7020;-76
2023/12/29 10:56:00;;;;;;;;;;;;;;;16.33;57.79;99852.72;5000572;28;7330;-78
2023/12/29 10:58:28;;;;;;;;;;;;;;;16.45;56.51;99849.44;4991161;28;7156;-78
2023/12/29 11:00:56;;;;;;;;;;;;;;;16.57;55.85;99851.34;5008148;28;7271;-78
2023/12/29 11:03:23;;;;;;;;;;;;;;;16.75;56.32;99846.44;4991860;28;6855;-78
2023/12/29 11:05:49;;;;;;;;;;;;;;;16.89;54.87;99859.56;4992037;28;6841;-79
2023/12/29 11:08:20;;;;;;;;;;;;;;;16.94;54.76;99855.28;4973301;28;7348;-78
2023/12/29 11:10:48;;;;;;;;;;;;;;;16.94;54.37;99864.78;4982184;28;6980;-77
2023/12/29 11:13:14;;;;;;;;;;;;;;;16.91;54.31;99854.41;4982799;28;8305;-78
2023/12/29 11:15:44;;;;;;;;;;;;;;;16.89;54.21;99843.13;4994711;28;7006;-77
2023/12/29 11:18:15;;;;;;;;;;;;;;;16.86;53.87;99843.13;4991488;28;6994;-76
2023/12/29 11:20:46;;;;;;;;;;;;;;;16.74;53.36;99862.81;4990284;28;8089;-76
2023/12/29 11:23:15;;;;;;;;;;;;;;;16.53;53.55;99878.88;4991005;28;9926;-78
2023/12/29 11:25:45;;;;;;;;;;;;;;;16.23;54.07;99857.75;4988987;28;7261;-78
2023/12/29 11:28:14;;;;;;;;;;;;;;;15.98;54.94;99876.25;5007246;28;6860;-77
2023/12/29 11:30:39;;;;;;;;;;;;;;;15.74;55.01;99874.94;4989632;28;6812;-78
2023/12/29 11:33:22;;;;;;;;;;;;;;;15.53;56.02;99869.41;4992492;28;6839;-76
2023/12/29 11:35:55;;;;;;;;;;;;;;;15.34;56.87;99863.00;5010931;28;6800;-75
2023/12/29 11:39:06;;;;;;;;;;;;;;;15.26;57.02;99856.84;5019003;28;7214;-75
2023/12/29 11:41:57;;;;;;;;;;;;;;;15.24;57.17;99866.22;5030229;28;7075;-76
2023/12/29 11:44:27;;;;;;;;;;;;;;;15.24;57.45;99867.13;5016017;28;6967;-75
2023/12/29 11:46:53;;;;;;;;;;;;;;;15.23;56.93;99867.06;5005036;28;7023;-75
2023/12/29 11:49:20;;;;;;;;;;;;;;;15.12;57.05;99860.00;5020287;28;7007;-75
2023/12/29 11:51:50;;;;;;;;;;;;;;;15.02;57.46;99860.63;5020375;28;7206;-76
2023/12/29 11:54:23;;;;;;;;;;;;;;;14.95;57.71;99866.50;4999699;28;6995;-76
2023/12/29 11:56:49;;;;;;;;;;;;;;;14.87;58.36;99866.34;5022259;28;6820;-75
2023/12/29 11:59:22;;;;;;;;;;;;;;;14.79;58.28;99854.97;5023507;28;7202;-76
2023/12/29 12:01:57;;;;;;;;;;;;;;;14.73;58.28;99863.44;5037528;28;6953;-75
2023/12/29 12:04:43;;;;;;;;;;;;;;;14.67;58.64;99861.56;5008560;28;7451;-76
2023/12/29 12:07:21;;;;;;;;;;;;;;;14.62;58.39;99854.56;5020880;28;7164;-75
2023/12/29 12:09:49;;;;;;;;;;;;;;;14.57;59.11;99860.47;5027521;28;6978;-76
2023/12/29 12:12:41;;;;;;;;;;;;;;;14.54;59.27;99857.84;5037389;28;7009;-76
2023/12/29 12:15:29;;;;;;;;;;;;;;;14.52;59.71;99862.09;5018378;28;7319;-76
2023/12/29 12:18:09;;;;;;;;;;;;;;;14.50;59.25;99856.03;5023193;28;6772;-76
2023/12/29 12:20:35;;;;;;;;;;;;;;;14.54;60.03;99862.16;5011583;28;6998;-75
2023/12/29 12:23:12;;;;;;;;;;;;;;;14.56;60.01;99863.91;5025628;28;6950;-75
2023/12/29 12:25:39;;;;;;;;;;;;;;;14.54;59.43;99857.00;5003362;28;7324;-76
2023/12/29 12:28:07;;;;;;;;;;;;;;;14.50;59.65;99861.19;5023742;28;7114;-75
2023/12/29 12:30:36;;;;;;;;;;;;;;;14.45;59.29;99860.22;5035639;28;6923;-76
2023/12/29 12:33:03;;;;;;;;;;;;;;;14.42;60.01;99853.25;5022460;28;7002;-75
2023/12/29 12:35:29;;;;;;;;;;;;;;;14.43;59.98;99859.31;5018731;28;6791;-76
2023/12/29 12:38:22;;;;;;;;;;;;;;;14.41;60.13;99860.97;5017868;28;7091;-76
2023/12/29 12:40:47;;;;;;;;;;;;;;;14.37;60.28;99843.69;5009230;28;7361;-75
2023/12/29 12:43:17;;;;;;;;;;;;;;;14.37;59.61;99849.72;5017298;28;6798;-76
2023/12/29 12:45:52;;;;;;;;;;;;;;;14.36;60.47;99844.53;5013591;28;7202;-79
2023/12/29 12:48:40;;;;;;;;;;;;;;;14.36;60.36;99840.25;4993055;28;7140;-80
2023/12/29 12:51:06;;;;;;;;;;;;;;;14.37;60.31;99841.09;5002428;28;6942;-79
2023/12/29 12:53:32;;;;;;;;;;;;;;;14.40;60.41;99833.47;4978991;28;6877;-79
2023/12/29 12:55:58;;;;;;;;;;;;;;;14.45;59.92;99831.84;4994033;28;7050;-79
2023/12/29 12:58:28;;;;;;;;;;;;;;;14.51;59.70;99828.53;4990844;28;6831;-79
2023/12/29 13:00:58;;;;;;;;;;;;;;;14.60;59.78;99817.56;4981115;28;8543;-79
2023/12/29 13:03:24;;;;;;;;;;;;;;;14.67;59.38;99807.41;4993321;28;7867;-79